Time;durP1;ratioP1;P1;durP2;ratioP2;P2;SDS_P1;SDS_P2;PMS_P1;PMS_P2;Temp;Humidity;BMP_temperature;BMP_pressure;BME280_temperature;BME280_humidity;BME280_pressure;Samples;Min_cycle;Max_cycle;Signal;HPM_P1;HPM_P2
2021/01/18 00:02:02;;;;;;;28.90;18.93;;;1.80;99.90;;;;;;5019070;28;20632;-69
2021/01/18 00:04:46;;;;;;;30.50;19.97;;;1.80;99.90;;;;;;5013203;28;20709;-69
2021/01/18 00:07:53;;;;;;;28.63;19.47;;;1.90;99.90;;;;;;5008894;28;20623;-69
2021/01/18 00:10:40;;;;;;;28.67;19.20;;;1.90;99.90;;;;;;5003666;28;20733;-69
2021/01/18 00:13:25;;;;;;;29.10;18.97;;;1.80;99.90;;;;;;4978707;28;21073;-69
2021/01/18 00:16:13;;;;;;;28.50;19.53;;;1.90;99.90;;;;;;4988070;28;20603;-69
2021/01/18 00:18:57;;;;;;;29.00;19.97;;;1.90;99.90;;;;;;4981900;28;20651;-69
2021/01/18 00:21:46;;;;;;;27.80;18.70;;;1.90;99.90;;;;;;4980880;28;20595;-69
2021/01/18 00:24:31;;;;;;;29.90;19.40;;;1.90;99.90;;;;;;4987991;28;20671;-69
2021/01/18 00:27:15;;;;;;;29.77;20.00;;;1.90;99.90;;;;;;4982418;28;21392;-69
2021/01/18 00:30:00;;;;;;;28.00;19.37;;;1.90;99.90;;;;;;4993868;28;21707;-69
2021/01/18 00:32:47;;;;;;;29.20;19.73;;;1.90;99.90;;;;;;4980087;28;20724;-69
2021/01/18 00:35:34;;;;;;;31.77;20.13;;;1.90;99.90;;;;;;4976921;28;21366;-69
2021/01/18 00:38:19;;;;;;;26.90;18.50;;;1.90;99.90;;;;;;4990001;28;20624;-69
2021/01/18 00:41:04;;;;;;;30.97;20.87;;;1.90;99.90;;;;;;4978850;28;20662;-69
2021/01/18 00:43:48;;;;;;;31.73;21.33;;;1.90;99.90;;;;;;4972794;28;21522;-69
2021/01/18 00:46:33;;;;;;;28.80;20.07;;;1.90;99.90;;;;;;4993939;28;20599;-69
2021/01/18 00:49:18;;;;;;;31.10;20.57;;;1.90;99.90;;;;;;4978402;28;20678;-69
2021/01/18 00:52:02;;;;;;;33.00;20.13;;;1.90;99.90;;;;;;4978799;28;21414;-69
2021/01/18 00:54:49;;;;;;;32.90;21.37;;;1.90;99.90;;;;;;4991600;28;21344;-69
2021/01/18 00:57:34;;;;;;;32.30;19.97;;;1.90;99.90;;;;;;4981039;28;20692;-69
2021/01/18 01:00:23;;;;;;;31.20;21.17;;;1.90;99.90;;;;;;4982579;28;20634;-69
2021/01/18 01:03:08;;;;;;;31.30;21.37;;;1.90;99.90;;;;;;4977665;28;20714;-69
2021/01/18 01:05:52;;;;;;;34.10;21.70;;;1.80;99.90;;;;;;4977774;28;20940;-69
2021/01/18 01:08:39;;;;;;;33.47;21.40;;;1.80;99.90;;;;;;4981344;28;21339;-69
2021/01/18 01:11:23;;;;;;;35.47;22.37;;;1.70;99.90;;;;;;4981595;28;20596;-69
2021/01/18 01:14:08;;;;;;;34.17;21.70;;;1.70;99.90;;;;;;5004729;23;20726;-66
2021/01/18 01:16:52;;;;;;;35.00;22.50;;;1.70;99.90;;;;;;4987905;28;21247;-62
2021/01/18 01:19:37;;;;;;;32.43;21.93;;;1.70;99.90;;;;;;5002749;28;20654;-63
2021/01/18 01:22:27;;;;;;;36.10;22.97;;;1.80;99.90;;;;;;4984370;28;20631;-63
2021/01/18 01:25:14;;;;;;;37.80;22.13;;;1.80;99.90;;;;;;4998776;28;20662;-63
2021/01/18 01:27:59;;;;;;;34.17;21.77;;;1.80;99.90;;;;;;5007182;28;20599;-65
2021/01/18 01:30:43;;;;;;;39.17;24.07;;;1.80;99.90;;;;;;5012252;28;20625;-65
2021/01/18 01:33:28;;;;;;;35.33;20.93;;;1.80;99.90;;;;;;5004263;28;21087;-63
2021/01/18 01:36:12;;;;;;;35.67;21.47;;;1.90;99.90;;;;;;5006350;28;20664;-63
2021/01/18 01:39:04;;;;;;;35.30;21.90;;;1.90;99.90;;;;;;5004396;28;20663;-63
2021/01/18 01:41:49;;;;;;;35.70;22.50;;;1.90;99.90;;;;;;5014957;28;21959;-64
2021/01/18 01:44:33;;;;;;;32.30;22.33;;;1.80;99.90;;;;;;5009462;28;20700;-63
2021/01/18 01:47:31;;;;;;;37.90;22.20;;;1.80;99.90;;;;;;5020659;28;21185;-67
2021/01/18 01:50:30;;;;;;;35.53;21.33;;;1.80;99.90;;;;;;5006842;28;20691;-67
2021/01/18 01:53:28;;;;;;;37.73;22.83;;;1.90;99.90;;;;;;5007021;28;20601;-67
2021/01/18 01:56:13;;;;;;;32.70;22.60;;;1.90;99.90;;;;;;5009727;28;20628;-67
2021/01/18 01:59:00;;;;;;;34.67;22.20;;;1.90;99.90;;;;;;5006428;28;21233;-67
2021/01/18 02:01:45;;;;;;;37.30;22.77;;;1.90;99.90;;;;;;5010434;28;21315;-67
2021/01/18 02:04:32;;;;;;;37.10;23.00;;;1.90;99.90;;;;;;5017030;28;20680;-67
2021/01/18 02:07:27;;;;;;;37.13;21.80;;;1.90;99.90;;;;;;5022231;28;21424;-67
2021/01/18 02:10:12;;;;;;;34.20;22.23;;;1.80;99.90;;;;;;5014196;28;20638;-68
2021/01/18 02:13:20;;;;;;;39.90;22.50;;;1.80;99.90;;;;;;5012942;28;20603;-68
2021/01/18 02:16:32;;;;;;;34.57;22.53;;;1.80;99.90;;;;;;5013978;28;20657;-68
2021/01/18 02:19:54;;;;;;;35.63;21.83;;;1.90;99.90;;;;;;5016078;28;20719;-68
2021/01/18 02:23:01;;;;;;;34.57;22.40;;;1.90;99.90;;;;;;5025336;28;21188;-68
2021/01/18 02:26:01;;;;;;;36.57;20.63;;;2.00;99.90;;;;;;5009674;28;20637;-68
2021/01/18 02:28:53;;;;;;;34.50;22.70;;;2.00;99.90;;;;;;5008149;28;21145;-68
2021/01/18 02:32:06;;;;;;;35.10;21.40;;;1.90;99.90;;;;;;5016550;28;20625;-68
2021/01/18 02:35:12;;;;;;;36.67;23.10;;;1.90;99.90;;;;;;5015452;28;20669;-68
2021/01/18 02:38:17;;;;;;;32.43;21.50;;;2.00;99.90;;;;;;5018297;28;21003;-68
2021/01/18 02:41:46;;;;;;;36.33;22.90;;;2.00;99.90;;;;;;5022483;28;21504;-68
2021/01/18 02:44:38;;;;;;;38.80;22.80;;;2.00;99.90;;;;;;5000815;28;20641;-67
2021/01/18 02:47:25;;;;;;;37.07;22.10;;;2.00;99.90;;;;;;5008778;28;20707;-68
2021/01/18 02:50:10;;;;;;;41.17;24.30;;;2.10;99.90;;;;;;5001687;28;20669;-68
2021/01/18 02:52:55;;;;;;;40.40;22.03;;;2.20;99.90;;;;;;5005557;28;20670;-68
2021/01/18 02:55:40;;;;;;;38.10;22.93;;;2.20;99.90;;;;;;5016207;28;20804;-68
2021/01/18 02:58:30;;;;;;;41.53;23.47;;;2.20;99.90;;;;;;5007730;28;20900;-68
2021/01/18 03:01:38;;;;;;;38.43;22.97;;;2.20;99.90;;;;;;5008035;28;21187;-68
2021/01/18 03:05:01;;;;;;;37.20;23.23;;;2.20;99.90;;;;;;5015510;28;20748;-68
2021/01/18 03:08:09;;;;;;;34.33;21.87;;;2.20;99.90;;;;;;5020060;28;20640;-68
2021/01/18 03:11:00;;;;;;;37.40;22.80;;;2.30;99.90;;;;;;5003773;28;20659;-68
2021/01/18 03:13:55;;;;;;;36.37;22.67;;;2.20;99.90;;;;;;5006304;28;20663;-68
2021/01/18 03:16:45;;;;;;;41.73;23.00;;;2.30;99.90;;;;;;5017324;28;20727;-68
2021/01/18 03:19:40;;;;;;;40.10;23.37;;;2.20;99.90;;;;;;5007839;28;20809;-68
2021/01/18 03:22:28;;;;;;;43.57;24.87;;;2.20;99.90;;;;;;5005804;28;20591;-68
2021/01/18 03:25:13;;;;;;;37.10;23.30;;;2.20;99.90;;;;;;5020220;28;20675;-68
2021/01/18 03:27:57;;;;;;;42.70;24.03;;;2.20;99.90;;;;;;5015033;28;20758;-68
2021/01/18 03:30:46;;;;;;;44.07;23.70;;;2.20;99.90;;;;;;5029638;28;20657;-66
2021/01/18 03:33:31;;;;;;;40.67;23.00;;;2.30;99.90;;;;;;5020977;28;21924;-67
2021/01/18 03:36:15;;;;;;;39.87;23.83;;;2.30;99.90;;;;;;5024826;28;20661;-67
2021/01/18 03:39:00;;;;;;;43.90;23.87;;;2.30;99.90;;;;;;5024547;28;20627;-68
2021/01/18 03:41:46;;;;;;;40.70;23.33;;;2.30;99.90;;;;;;5016949;28;20623;-67
2021/01/18 03:44:30;;;;;;;40.90;22.27;;;2.40;99.90;;;;;;5017585;28;20659;-67
2021/01/18 03:47:15;;;;;;;45.37;23.60;;;2.40;99.90;;;;;;5020450;28;20578;-68
2021/01/18 03:49:59;;;;;;;41.57;22.33;;;2.50;99.90;;;;;;5019991;28;20668;-68
2021/01/18 03:52:47;;;;;;;40.57;23.50;;;2.50;99.90;;;;;;5022424;28;20701;-67
2021/01/18 03:55:32;;;;;;;44.37;23.70;;;2.50;99.90;;;;;;5027140;28;21295;-67
2021/01/18 03:58:18;;;;;;;41.50;23.43;;;2.40;99.90;;;;;;5028332;28;21287;-67
2021/01/18 04:01:04;;;;;;;41.23;22.80;;;2.50;99.90;;;;;;5028745;28;20670;-67
2021/01/18 04:03:49;;;;;;;46.63;24.33;;;2.50;99.90;;;;;;5020039;28;20786;-68
2021/01/18 04:06:39;;;;;;;45.10;24.60;;;2.50;99.90;;;;;;5025037;28;21212;-67
2021/01/18 04:09:23;;;;;;;47.60;26.03;;;2.50;99.90;;;;;;5025711;28;20754;-67
2021/01/18 04:12:08;;;;;;;41.53;24.43;;;2.50;99.90;;;;;;5022525;28;20981;-67
2021/01/18 04:14:52;;;;;;;44.07;24.00;;;2.60;99.90;;;;;;5009632;28;20666;-68
2021/01/18 04:17:45;;;;;;;47.97;24.20;;;2.60;99.90;;;;;;5025916;28;20633;-67
2021/01/18 04:20:29;;;;;;;41.17;22.53;;;2.60;99.90;;;;;;5026799;28;20630;-68
2021/01/18 04:23:14;;;;;;;43.03;22.10;;;2.50;99.90;;;;;;5014833;28;20592;-68
2021/01/18 04:25:58;;;;;;;41.77;23.37;;;2.70;99.90;;;;;;5020620;28;20813;-67
2021/01/18 04:28:43;;;;;;;45.97;24.37;;;2.60;99.90;;;;;;5021294;28;20622;-67
2021/01/18 04:31:27;;;;;;;43.30;21.83;;;2.60;99.90;;;;;;5017993;28;20699;-67
2021/01/18 04:34:12;;;;;;;42.03;22.60;;;2.60;99.90;;;;;;5020167;28;20651;-68
2021/01/18 04:36:56;;;;;;;40.40;21.20;;;2.70;99.90;;;;;;5039636;28;20602;-68
2021/01/18 04:39:40;;;;;;;42.50;21.07;;;2.70;99.90;;;;;;5026130;28;20653;-67
2021/01/18 04:42:31;;;;;;;41.93;22.60;;;2.70;99.90;;;;;;5022206;28;20611;-68
2021/01/18 04:45:19;;;;;;;38.13;20.80;;;2.70;99.90;;;;;;5009758;28;20713;-68
2021/01/18 04:48:05;;;;;;;43.50;21.40;;;2.70;99.90;;;;;;5023007;28;21170;-69
2021/01/18 04:50:50;;;;;;;41.93;19.43;;;2.70;99.90;;;;;;5027058;28;20944;-67
2021/01/18 04:53:46;;;;;;;39.17;19.53;;;2.80;99.90;;;;;;5017906;28;20636;-68
2021/01/18 04:57:12;;;;;;;37.43;18.87;;;2.80;99.90;;;;;;5015608;28;20616;-68
2021/01/18 05:00:05;;;;;;;35.80;17.83;;;2.80;99.90;;;;;;5027190;28;20630;-68
2021/01/18 05:02:52;;;;;;;38.30;20.20;;;2.80;99.90;;;;;;5027028;28;20667;-68
2021/01/18 05:05:54;;;;;;;41.03;19.43;;;2.80;99.90;;;;;;5014836;28;20763;-68
2021/01/18 05:09:18;;;;;;;39.63;18.37;;;2.80;99.90;;;;;;5026389;28;20690;-68
2021/01/18 05:12:05;;;;;;;37.43;19.23;;;2.80;99.90;;;;;;5023784;28;20591;-67
2021/01/18 05:14:49;;;;;;;32.63;17.53;;;2.80;99.90;;;;;;5020615;28;20671;-68
2021/01/18 05:17:43;;;;;;;37.33;17.90;;;2.80;99.90;;;;;;5019379;28;20642;-68
2021/01/18 05:20:28;;;;;;;32.53;16.87;;;2.90;99.90;;;;;;5027597;28;20677;-68
2021/01/18 05:23:13;;;;;;;29.10;15.13;;;2.80;99.90;;;;;;5016834;28;20687;-68
2021/01/18 05:26:18;;;;;;;32.33;15.97;;;2.90;99.90;;;;;;5022769;28;21005;-68
2021/01/18 05:29:03;;;;;;;27.33;15.90;;;2.90;99.90;;;;;;5024821;28;21107;-68
2021/01/18 05:31:48;;;;;;;25.93;15.17;;;2.90;99.90;;;;;;5014854;28;21193;-68
2021/01/18 05:34:32;;;;;;;27.20;15.93;;;2.90;99.90;;;;;;5013343;28;20708;-68
2021/01/18 05:37:17;;;;;;;27.33;15.50;;;2.90;99.90;;;;;;5013145;28;20680;-68
2021/01/18 05:40:21;;;;;;;31.57;16.30;;;2.90;99.90;;;;;;5024980;28;20765;-67
2021/01/18 05:43:10;;;;;;;25.53;14.10;;;2.90;99.90;;;;;;5011718;28;20789;-67
2021/01/18 05:46:03;;;;;;;28.47;15.60;;;3.00;99.90;;;;;;5021015;28;20635;-68
2021/01/18 05:48:48;;;;;;;25.60;15.13;;;3.00;99.90;;;;;;5020312;28;20623;-68
2021/01/18 05:51:34;;;;;;;28.60;15.13;;;2.90;99.90;;;;;;5022614;28;20665;-67
2021/01/18 05:54:25;;;;;;;24.80;13.87;;;2.90;99.90;;;;;;5019546;28;20638;-68
2021/01/18 05:57:15;;;;;;;29.77;15.00;;;3.00;99.90;;;;;;5025794;28;20622;-68
2021/01/18 06:00:03;;;;;;;23.30;13.60;;;3.00;99.90;;;;;;5024954;28;21236;-69
2021/01/18 06:02:49;;;;;;;24.40;14.10;;;3.00;99.90;;;;;;5030122;28;21276;-67
2021/01/18 06:05:35;;;;;;;23.47;13.87;;;3.10;99.90;;;;;;5020540;28;21307;-68
2021/01/18 06:08:21;;;;;;;26.03;14.90;;;3.10;99.90;;;;;;5013614;28;20608;-67
2021/01/18 06:11:05;;;;;;;26.17;16.30;;;3.10;99.90;;;;;;5015440;28;20591;-67
2021/01/18 06:13:57;;;;;;;26.40;14.63;;;3.10;99.90;;;;;;5013328;28;20650;-68
2021/01/18 06:16:44;;;;;;;23.03;13.73;;;3.10;99.90;;;;;;5009598;28;20612;-67
2021/01/18 06:19:29;;;;;;;22.00;12.03;;;3.10;99.90;;;;;;5021091;28;21020;-67
2021/01/18 06:22:27;;;;;;;24.90;13.97;;;3.10;99.90;;;;;;5020888;28;20714;-67
2021/01/18 06:25:14;;;;;;;24.13;12.53;;;3.10;99.90;;;;;;5021737;28;20634;-68
2021/01/18 06:27:59;;;;;;;22.67;12.10;;;3.10;99.90;;;;;;5023333;28;20717;-68
2021/01/18 06:30:43;;;;;;;22.40;12.87;;;3.10;99.90;;;;;;5014921;28;21034;-68
2021/01/18 06:33:46;;;;;;;25.23;13.57;;;3.10;99.90;;;;;;5016174;28;21172;-68
2021/01/18 06:36:35;;;;;;;23.27;12.43;;;3.20;99.90;;;;;;5018950;28;21208;-68
2021/01/18 06:39:24;;;;;;;22.47;13.33;;;3.20;99.90;;;;;;5015457;28;20667;-67
2021/01/18 06:42:10;;;;;;;23.83;12.23;;;3.30;99.90;;;;;;5022256;28;20658;-67
2021/01/18 06:44:55;;;;;;;27.77;13.83;;;3.40;99.90;;;;;;5014674;28;20689;-67
2021/01/18 06:47:40;;;;;;;24.07;12.53;;;3.30;99.90;;;;;;5020220;28;20697;-67
2021/01/18 06:50:29;;;;;;;24.73;12.80;;;3.30;99.90;;;;;;5019722;28;20943;-68
2021/01/18 06:53:25;;;;;;;23.30;12.13;;;3.20;99.90;;;;;;5017654;28;20588;-68
2021/01/18 06:56:25;;;;;;;21.43;12.70;;;3.30;99.90;;;;;;5008267;28;20646;-68
2021/01/18 06:59:32;;;;;;;28.27;12.33;;;3.30;99.90;;;;;;5029755;28;21271;-68
2021/01/18 07:02:20;;;;;;;27.77;13.40;;;3.30;99.90;;;;;;5007615;28;21208;-68
2021/01/18 07:05:13;;;;;;;25.60;11.40;;;3.30;99.90;;;;;;4983619;28;20752;-67
2021/01/18 07:08:12;;;;;;;23.67;12.07;;;3.30;99.90;;;;;;5020765;28;20599;-67
2021/01/18 07:11:09;;;;;;;18.63;10.17;;;3.40;99.90;;;;;;5019017;28;20634;-67
2021/01/18 07:13:54;;;;;;;17.80;9.90;;;3.40;99.90;;;;;;5017212;28;20654;-66
2021/01/18 07:16:42;;;;;;;18.90;9.87;;;3.30;99.90;;;;;;5032014;22;20627;-68
2021/01/18 07:19:35;;;;;;;17.90;9.20;;;3.40;99.90;;;;;;4977879;28;21218;-70
2021/01/18 07:22:46;;;;;;;19.37;9.67;;;3.40;99.90;;;;;;4978210;28;20661;-70
2021/01/18 07:25:45;;;;;;;25.00;10.30;;;3.40;99.90;;;;;;4974055;28;20641;-70
2021/01/18 07:28:31;;;;;;;15.30;10.10;;;3.40;99.90;;;;;;4985107;28;20799;-70
2021/01/18 07:31:19;;;;;;;20.10;9.90;;;3.40;99.90;;;;;;4995519;28;20573;-70
2021/01/18 07:34:04;;;;;;;17.30;8.53;;;3.50;99.90;;;;;;4990779;28;20624;-70
2021/01/18 07:36:49;;;;;;;17.63;9.60;;;3.60;99.90;;;;;;4974669;28;20589;-70
2021/01/18 07:39:39;;;;;;;20.70;9.33;;;3.60;99.90;;;;;;4978954;28;20655;-70
2021/01/18 07:42:29;;;;;;;18.43;9.13;;;3.60;99.90;;;;;;4999895;28;20756;-70
2021/01/18 07:45:16;;;;;;;15.50;8.90;;;3.60;99.90;;;;;;4996855;28;20628;-70
2021/01/18 07:48:00;;;;;;;18.10;8.60;;;3.60;99.90;;;;;;4981599;28;20659;-70
2021/01/18 07:50:45;;;;;;;14.37;8.97;;;3.60;99.90;;;;;;4998662;28;20584;-70
2021/01/18 07:53:33;;;;;;;15.60;9.30;;;3.50;99.90;;;;;;4978553;28;20715;-70
2021/01/18 07:56:28;;;;;;;17.43;9.90;;;3.50;99.90;;;;;;4990303;28;20806;-70
2021/01/18 07:59:16;;;;;;;16.33;9.33;;;3.60;99.90;;;;;;4982730;28;20959;-71
2021/01/18 08:02:01;;;;;;;16.57;8.10;;;3.60;99.90;;;;;;4990620;28;20608;-70
2021/01/18 08:04:48;;;;;;;21.03;8.83;;;3.60;99.90;;;;;;4980786;28;20711;-70
2021/01/18 08:08:12;;;;;;;18.07;9.17;;;3.60;99.90;;;;;;5001036;28;20656;-70
2021/01/18 08:10:58;;;;;;;18.50;9.30;;;3.60;99.90;;;;;;4997428;28;20584;-70
2021/01/18 08:13:45;;;;;;;17.93;9.30;;;3.60;99.90;;;;;;4980364;28;20647;-70
2021/01/18 08:16:39;;;;;;;16.00;9.40;;;3.70;99.90;;;;;;4995144;28;20620;-70
2021/01/18 08:19:26;;;;;;;22.73;9.83;;;3.70;99.90;;;;;;4996297;28;20609;-70
2021/01/18 08:22:10;;;;;;;15.47;9.70;;;3.70;99.90;;;;;;4992532;28;20604;-70
2021/01/18 08:24:55;;;;;;;22.30;9.77;;;3.90;99.90;;;;;;4985201;28;20632;-71
2021/01/18 08:27:46;;;;;;;17.77;9.77;;;3.90;99.90;;;;;;4997187;28;20651;-70
2021/01/18 08:30:39;;;;;;;16.47;9.67;;;3.90;99.90;;;;;;4985199;28;20636;-70
2021/01/18 08:33:25;;;;;;;22.90;10.63;;;3.90;99.90;;;;;;4985055;28;21127;-70
2021/01/18 08:36:10;;;;;;;20.50;10.03;;;3.90;99.90;;;;;;4986013;28;20680;-70
2021/01/18 08:39:08;;;;;;;17.87;10.00;;;3.90;99.90;;;;;;4984840;28;20858;-70
2021/01/18 08:41:54;;;;;;;22.97;11.00;;;4.00;99.90;;;;;;4985762;28;20700;-70
2021/01/18 08:44:42;;;;;;;17.67;9.77;;;4.10;99.90;;;;;;4981512;28;21146;-69
2021/01/18 08:47:34;;;;;;;25.43;10.17;;;4.10;99.90;;;;;;4985462;28;20686;-70
2021/01/18 08:50:22;;;;;;;20.17;10.33;;;4.10;99.90;;;;;;4988492;28;20908;-70
2021/01/18 08:53:34;;;;;;;20.10;10.10;;;4.10;99.90;;;;;;4982996;28;20597;-70
2021/01/18 08:56:25;;;;;;;18.10;9.83;;;4.20;99.90;;;;;;4996249;28;20643;-70
2021/01/18 08:59:16;;;;;;;22.00;10.67;;;4.10;99.90;;;;;;4979311;28;20745;-70
2021/01/18 09:02:00;;;;;;;20.33;11.13;;;4.20;99.90;;;;;;4976897;28;20620;-70
2021/01/18 09:04:47;;;;;;;19.03;9.70;;;4.20;99.90;;;;;;4984026;28;20791;-70
2021/01/18 09:07:32;;;;;;;19.73;10.40;;;4.30;99.90;;;;;;4982614;28;20636;-70
2021/01/18 09:10:20;;;;;;;19.37;10.50;;;4.30;99.90;;;;;;4976667;28;20609;-70
2021/01/18 09:13:09;;;;;;;20.80;9.37;;;4.30;99.90;;;;;;4991300;28;20935;-70
2021/01/18 09:15:56;;;;;;;24.80;10.27;;;4.40;99.90;;;;;;4957453;28;20659;-70
2021/01/18 09:18:41;;;;;;;21.43;9.83;;;4.40;99.90;;;;;;4957986;28;20754;-70
2021/01/18 09:21:28;;;;;;;17.50;10.47;;;4.30;99.90;;;;;;4941535;28;20624;-70
2021/01/18 09:24:13;;;;;;;20.83;10.03;;;4.30;99.90;;;;;;4953103;28;20688;-70
2021/01/18 09:27:00;;;;;;;19.80;10.27;;;4.40;99.90;;;;;;4972233;28;21183;-70
2021/01/18 09:30:04;;;;;;;27.07;11.17;;;4.40;99.90;;;;;;4982114;28;20670;-70
2021/01/18 09:32:56;;;;;;;18.90;11.00;;;4.40;99.90;;;;;;4974852;28;20662;-70
2021/01/18 09:35:42;;;;;;;20.77;11.23;;;4.40;99.90;;;;;;4964472;28;20776;-70
2021/01/18 09:38:27;;;;;;;22.13;10.57;;;4.40;99.90;;;;;;4968600;28;21341;-70
2021/01/18 09:41:15;;;;;;;24.60;12.20;;;4.50;99.90;;;;;;4957418;28;20596;-70
2021/01/18 09:44:08;;;;;;;23.47;11.00;;;4.50;99.90;;;;;;4954385;28;20780;-70
2021/01/18 09:46:54;;;;;;;24.33;11.87;;;4.50;99.90;;;;;;4954119;28;20585;-70
2021/01/18 09:49:39;;;;;;;30.93;14.10;;;4.60;99.90;;;;;;4982069;28;21190;-70
2021/01/18 09:52:23;;;;;;;25.90;12.23;;;4.60;99.90;;;;;;4956501;28;20580;-70
2021/01/18 09:55:29;;;;;;;22.77;11.90;;;4.60;99.90;;;;;;4948346;28;20768;-69
2021/01/18 09:58:38;;;;;;;30.13;13.83;;;4.70;99.90;;;;;;4960364;28;20687;-69
2021/01/18 10:01:27;;;;;;;30.27;14.10;;;4.60;99.90;;;;;;4951963;28;21372;-70
2021/01/18 10:04:20;;;;;;;30.30;13.37;;;4.70;99.90;;;;;;4971315;28;20685;-70
2021/01/18 10:07:09;;;;;;;27.77;13.07;;;4.70;99.90;;;;;;4954210;28;20675;-70
2021/01/18 10:09:57;;;;;;;34.57;14.93;;;4.90;99.90;;;;;;4985405;28;20728;-71
2021/01/18 10:12:52;;;;;;;28.20;15.00;;;4.80;99.90;;;;;;4988976;28;20588;-70
2021/01/18 10:15:37;;;;;;;29.50;14.87;;;4.80;99.90;;;;;;4983459;28;21032;-71
2021/01/18 10:18:38;;;;;;;29.60;14.83;;;4.80;99.90;;;;;;4987477;28;20671;-70
2021/01/18 10:21:33;;;;;;;26.07;13.23;;;4.80;99.90;;;;;;4987700;28;20624;-70
2021/01/18 10:24:32;;;;;;;29.40;14.50;;;4.80;99.90;;;;;;4983110;28;20696;-70
2021/01/18 10:27:24;;;;;;;27.37;14.37;;;4.90;99.90;;;;;;4981068;28;20633;-70
2021/01/18 10:30:14;;;;;;;24.40;12.00;;;4.90;99.90;;;;;;4980743;28;20759;-70
2021/01/18 10:33:01;;;;;;;25.93;13.23;;;4.90;99.90;;;;;;5000803;28;20698;-70
2021/01/18 10:35:51;;;;;;;25.57;13.97;;;5.00;99.90;;;;;;5003798;28;20631;-70
2021/01/18 10:38:39;;;;;;;25.13;14.07;;;5.00;99.90;;;;;;4989737;28;20647;-70
2021/01/18 10:41:25;;;;;;;25.03;13.23;;;4.90;99.90;;;;;;4989047;28;20966;-71
2021/01/18 10:44:10;;;;;;;26.03;13.73;;;5.00;99.90;;;;;;4987782;28;20647;-71
2021/01/18 10:46:54;;;;;;;26.80;14.10;;;5.00;99.90;;;;;;4988826;28;20636;-70
2021/01/18 10:49:39;;;;;;;25.17;13.47;;;5.00;99.90;;;;;;4987459;28;20607;-70
2021/01/18 10:52:37;;;;;;;24.50;12.97;;;4.90;99.90;;;;;;4985349;28;20950;-71
2021/01/18 10:55:23;;;;;;;20.63;12.37;;;5.00;99.90;;;;;;4987577;28;20663;-71
2021/01/18 10:58:08;;;;;;;24.40;11.87;;;5.00;99.90;;;;;;4984353;28;20814;-70
2021/01/18 11:00:52;;;;;;;18.07;12.00;;;5.00;99.90;;;;;;4988761;28;20636;-71
2021/01/18 11:03:38;;;;;;;24.03;12.70;;;4.90;99.90;;;;;;4983913;28;20699;-70
2021/01/18 11:06:23;;;;;;;19.30;11.93;;;5.00;99.90;;;;;;4963078;28;20647;-70
2021/01/18 11:09:08;;;;;;;20.23;11.97;;;5.00;99.90;;;;;;4970601;28;20652;-70
2021/01/18 11:11:53;;;;;;;17.73;12.53;;;5.00;99.90;;;;;;4958089;28;20699;-69
2021/01/18 11:14:38;;;;;;;18.53;12.07;;;5.10;99.90;;;;;;4951406;28;20652;-69
2021/01/18 11:17:27;;;;;;;19.63;11.27;;;5.00;99.90;;;;;;4958459;28;20655;-70
2021/01/18 11:20:23;;;;;;;17.97;12.07;;;5.10;99.90;;;;;;4971570;28;20667;-69
2021/01/18 11:23:11;;;;;;;17.17;11.10;;;5.10;99.90;;;;;;4979926;28;20632;-70
2021/01/18 11:25:56;;;;;;;18.60;11.20;;;5.10;99.90;;;;;;4986640;28;20694;-70
2021/01/18 11:28:40;;;;;;;18.57;11.90;;;5.00;99.90;;;;;;4978750;28;21253;-70
2021/01/18 11:31:25;;;;;;;19.03;12.40;;;5.00;99.90;;;;;;4988223;28;21915;-70
2021/01/18 11:34:09;;;;;;;23.60;14.00;;;5.10;99.90;;;;;;4993933;28;21237;-70
2021/01/18 11:36:54;;;;;;;20.90;12.23;;;5.10;99.90;;;;;;4979638;28;20598;-70
2021/01/18 11:39:40;;;;;;;22.67;13.97;;;5.10;99.90;;;;;;4973960;28;20655;-69
2021/01/18 11:42:24;;;;;;;20.97;13.97;;;5.10;99.90;;;;;;4977608;28;21140;-70
2021/01/18 11:45:10;;;;;;;25.10;14.70;;;5.10;99.90;;;;;;4980981;28;20975;-69
2021/01/18 11:47:54;;;;;;;27.53;15.57;;;5.10;99.90;;;;;;4983272;28;20671;-70
2021/01/18 11:50:39;;;;;;;33.37;15.00;;;5.20;99.90;;;;;;4986702;28;20703;-70
2021/01/18 11:53:23;;;;;;;27.83;16.27;;;5.20;99.90;;;;;;4988005;28;20596;-70
2021/01/18 11:56:08;;;;;;;25.70;15.60;;;5.20;99.90;;;;;;4988120;28;20674;-70
2021/01/18 11:58:52;;;;;;;28.40;16.00;;;5.20;99.90;;;;;;4988136;28;20707;-70
2021/01/18 12:01:44;;;;;;;26.53;16.40;;;5.30;99.90;;;;;;5000514;28;20581;-69
2021/01/18 12:04:28;;;;;;;26.50;16.23;;;5.30;99.90;;;;;;4996301;28;20648;-70
2021/01/18 12:07:14;;;;;;;28.33;16.03;;;5.30;99.90;;;;;;4982909;28;20706;-70
2021/01/18 12:09:59;;;;;;;30.37;17.60;;;5.20;99.90;;;;;;4982171;28;20694;-70
2021/01/18 12:12:43;;;;;;;30.10;17.30;;;5.30;99.90;;;;;;4984565;28;20601;-70
2021/01/18 12:15:28;;;;;;;29.40;17.67;;;5.40;99.90;;;;;;4977832;28;20660;-69
2021/01/18 12:18:13;;;;;;;30.93;17.23;;;5.40;99.90;;;;;;4983241;28;21027;-69
2021/01/18 12:20:57;;;;;;;29.07;17.27;;;5.40;99.90;;;;;;5000589;28;21190;-70
2021/01/18 12:23:42;;;;;;;30.50;17.40;;;5.40;99.90;;;;;;4984704;28;20650;-70
2021/01/18 12:26:26;;;;;;;35.63;18.00;;;5.50;99.90;;;;;;4982143;28;20701;-70
2021/01/18 12:29:11;;;;;;;30.30;18.20;;;5.40;99.90;;;;;;4985024;28;20616;-70
2021/01/18 12:31:55;;;;;;;28.30;17.67;;;5.50;99.90;;;;;;4986442;28;20600;-72
2021/01/18 12:34:40;;;;;;;32.53;17.70;;;5.50;99.90;;;;;;4998396;28;20690;-70
2021/01/18 12:37:24;;;;;;;35.73;19.20;;;5.50;99.90;;;;;;4981360;28;20807;-71
2021/01/18 12:40:10;;;;;;;32.53;18.60;;;5.50;99.90;;;;;;4979170;28;21245;-71
2021/01/18 12:42:55;;;;;;;34.77;20.03;;;5.60;99.90;;;;;;4982305;28;20576;-71
2021/01/18 12:45:39;;;;;;;28.50;18.57;;;5.50;99.90;;;;;;5002049;28;20733;-70
2021/01/18 12:48:24;;;;;;;28.53;17.90;;;5.60;99.90;;;;;;4981147;28;20703;-72
2021/01/18 12:51:14;;;;;;;26.47;18.20;;;5.60;99.90;;;;;;4976383;28;20677;-73
2021/01/18 12:53:58;;;;;;;27.90;19.57;;;5.60;99.90;;;;;;4994272;28;20647;-72
2021/01/18 12:56:43;;;;;;;30.40;19.30;;;5.60;99.90;;;;;;4992630;28;20603;-74
2021/01/18 12:59:27;;;;;;;29.87;18.10;;;5.50;99.90;;;;;;4982440;28;20589;-70
2021/01/18 13:02:12;;;;;;;32.47;18.90;;;5.50;99.90;;;;;;4997650;28;20588;-68
2021/01/18 13:04:56;;;;;;;32.00;18.07;;;5.60;99.90;;;;;;4980067;28;22046;-74
2021/01/18 13:07:50;;;;;;;32.07;18.60;;;5.60;99.90;;;;;;4980863;28;20675;-73
2021/01/18 13:10:35;;;;;;;26.47;17.60;;;5.70;99.90;;;;;;4981968;28;20639;-71
2021/01/18 13:13:19;;;;;;;27.10;18.47;;;5.80;99.90;;;;;;4980583;28;21159;-71
2021/01/18 13:16:04;;;;;;;21.97;16.40;;;5.80;99.90;;;;;;4982454;28;20600;-71
2021/01/18 13:18:49;;;;;;;26.33;17.30;;;5.80;99.90;;;;;;5000350;23;20700;-66
2021/01/18 13:21:33;;;;;;;28.20;16.90;;;5.80;99.90;;;;;;4982761;28;20727;-63
2021/01/18 13:24:18;;;;;;;23.97;16.50;;;5.80;99.90;;;;;;4996796;28;20656;-65
2021/01/18 13:27:02;;;;;;;26.67;17.20;;;5.80;99.90;;;;;;4993610;28;21045;-65
2021/01/18 13:29:47;;;;;;;26.70;16.33;;;5.70;99.90;;;;;;5000030;28;20664;-65
2021/01/18 13:32:32;;;;;;;21.93;14.80;;;5.70;99.90;;;;;;4972544;28;20633;-67
2021/01/18 13:35:19;;;;;;;23.27;15.17;;;5.70;99.90;;;;;;4991113;28;20656;-65
2021/01/18 13:38:04;;;;;;;23.33;15.67;;;5.70;99.90;;;;;;4983754;28;20647;-65
2021/01/18 13:40:48;;;;;;;18.73;12.30;;;5.80;99.90;;;;;;4986472;28;20652;-65
2021/01/18 13:43:32;;;;;;;21.53;14.33;;;5.80;99.90;;;;;;4981227;28;20645;-65
2021/01/18 13:46:23;;;;;;;19.50;12.93;;;5.80;99.90;;;;;;4997951;28;20767;-65
2021/01/18 13:49:07;;;;;;;20.30;13.20;;;5.90;99.90;;;;;;4971978;28;20724;-65
2021/01/18 13:51:52;;;;;;;22.47;13.30;;;5.90;99.90;;;;;;4970886;28;20600;-65
2021/01/18 13:54:37;;;;;;;18.53;12.03;;;5.90;99.90;;;;;;4973977;28;20732;-65
2021/01/18 13:57:21;;;;;;;22.60;13.23;;;5.90;99.90;;;;;;4982039;28;20628;-65
2021/01/18 14:00:06;;;;;;;17.73;12.90;;;5.90;99.90;;;;;;4987163;28;20740;-65
2021/01/18 14:02:54;;;;;;;19.53;12.47;;;6.00;99.90;;;;;;4983498;28;20994;-65
2021/01/18 14:05:40;;;;;;;17.70;11.43;;;6.00;99.90;;;;;;4981386;28;21276;-65
2021/01/18 14:08:24;;;;;;;16.67;11.70;;;6.00;99.90;;;;;;4987530;28;20708;-65
2021/01/18 14:11:09;;;;;;;14.77;10.77;;;6.00;99.90;;;;;;4983932;28;20632;-65
2021/01/18 14:13:53;;;;;;;17.77;11.63;;;6.10;99.90;;;;;;4988376;28;21326;-65
2021/01/18 14:16:42;;;;;;;17.90;12.73;;;6.00;99.90;;;;;;4986730;28;20589;-65
2021/01/18 14:19:28;;;;;;;20.00;11.97;;;6.00;99.90;;;;;;4985960;28;20693;-64
2021/01/18 14:22:12;;;;;;;18.77;11.90;;;6.00;99.90;;;;;;5005884;28;20748;-65
2021/01/18 14:24:59;;;;;;;17.13;11.80;;;6.00;99.90;;;;;;4972824;28;20628;-64
2021/01/18 14:27:44;;;;;;;16.37;12.53;;;6.00;99.90;;;;;;4982116;28;20616;-65
2021/01/18 14:30:29;;;;;;;16.30;10.70;;;6.00;99.90;;;;;;5001216;28;20735;-65